Time;durP1;ratioP1;P1;durP2;ratioP2;P2;SDS_P1;SDS_P2;PMS_P1;PMS_P2;Temp;Humidity;BMP_temperature;BMP_pressure;BME280_temperature;BME280_humidity;BME280_pressure;Samples;Min_cycle;Max_cycle;Signal;HPM_P1;HPM_P2
2023/06/04 00:01:08;;;;;;;5.03;2.15;;;;;;;8.55;100.00;101889.97;6194473;23;20012;-83
2023/06/04 00:03:34;;;;;;;5.13;2.10;;;;;;;8.58;100.00;101884.34;6194490;23;20008;-82
2023/06/04 00:06:00;;;;;;;4.38;2.25;;;;;;;8.68;100.00;101887.06;6194433;23;20008;-84
2023/06/04 00:08:25;;;;;;;4.07;2.50;;;;;;;8.83;100.00;101890.19;6220419;23;20029;-83
2023/06/04 00:10:51;;;;;;;6.00;2.47;;;;;;;8.75;98.50;101852.50;6196358;23;20087;-83
2023/06/04 00:13:17;;;;;;;5.22;2.35;;;;;;;8.88;97.72;101879.06;6196346;23;20012;-83
2023/06/04 00:15:43;;;;;;;4.72;2.00;;;;;;;8.77;97.73;101885.41;6196271;23;20004;-83
2023/06/04 00:18:10;;;;;;;4.28;2.15;;;;;;;8.66;98.44;101889.03;6196337;23;20015;-81
2023/06/04 00:20:36;;;;;;;4.82;2.53;;;;;;;8.50;99.47;101880.66;6196654;23;20028;-83
2023/06/04 00:23:02;;;;;;;4.25;2.15;;;;;;;8.40;100.00;101879.75;6221410;23;20011;-82
2023/06/04 00:25:28;;;;;;;3.05;2.00;;;;;;;8.36;100.00;101889.84;6196359;23;20424;-83
2023/06/04 00:27:56;;;;;;;6.28;2.38;;;;;;;8.31;100.00;101886.75;6196355;23;20019;-82
2023/06/04 00:30:21;;;;;;;4.70;2.20;;;;;;;8.28;100.00;101893.22;6196106;23;20328;-83
2023/06/04 00:32:47;;;;;;;6.07;2.50;;;;;;;8.26;100.00;101892.50;6196247;23;20036;-82
2023/06/04 00:35:13;;;;;;;5.47;2.63;;;;;;;8.10;100.00;101890.28;6221144;23;20432;-83
2023/06/04 00:37:38;;;;;;;4.38;2.58;;;;;;;8.00;100.00;101892.06;6196109;23;20008;-82
2023/06/04 00:40:05;;;;;;;4.88;2.33;;;;;;;7.81;100.00;101892.78;6196144;23;20003;-82
2023/06/04 00:42:31;;;;;;;7.50;2.38;;;;;;;7.65;100.00;101889.69;6221188;23;20459;-83
2023/06/04 00:44:58;;;;;;;6.15;2.50;;;;;;;7.59;100.00;101893.72;6221075;23;20004;-82
2023/06/04 00:47:23;;;;;;;4.78;2.38;;;;;;;7.47;100.00;101892.09;6196090;23;20012;-82
2023/06/04 00:49:49;;;;;;;4.28;2.53;;;;;;;7.48;100.00;101891.09;6246268;23;20011;-82
2023/06/04 00:52:16;;;;;;;6.68;2.53;;;;;;;7.34;100.00;101878.88;6195895;23;20004;-82
2023/06/04 00:54:42;;;;;;;3.72;2.47;;;;;;;7.26;100.00;101887.53;6220962;23;20000;-83
2023/06/04 00:57:08;;;;;;;4.03;1.95;;;;;;;7.17;100.00;101882.06;6195836;23;20015;-82
2023/06/04 00:59:36;;;;;;;4.72;2.60;;;;;;;7.13;100.00;101880.63;6195823;23;20008;-83
2023/06/04 01:02:19;;;;;;;4.65;2.45;;;;;;;7.01;100.00;101866.44;6171327;23;20429;-83
2023/06/04 01:05:10;;;;;;;4.65;2.42;;;;;;;7.05;100.00;101890.13;6171484;23;20004;-83
2023/06/04 01:07:36;;;;;;;3.42;2.00;;;;;;;6.79;100.00;101854.81;6196050;23;20420;-84
2023/06/04 01:10:03;;;;;;;5.10;2.22;;;;;;;6.90;100.00;101888.69;6221015;23;20014;-84
2023/06/04 01:12:28;;;;;;;5.50;2.08;;;;;;;6.81;100.00;101884.13;6196069;23;20007;-83
2023/06/04 01:14:54;;;;;;;4.60;2.28;;;;;;;6.74;100.00;101877.53;6170892;23;20012;-84
2023/06/04 01:17:20;;;;;;;4.55;2.15;;;;;;;6.71;100.00;101880.47;6170610;23;20146;-83
2023/06/04 01:19:51;;;;;;;5.07;2.15;;;;;;;6.69;100.00;101879.75;6195187;23;20154;-83
2023/06/04 01:22:40;;;;;;;6.65;2.50;;;;;;;6.63;100.00;101874.91;6195621;23;20008;-82
2023/06/04 01:25:25;;;;;;;7.32;2.78;;;;;;;6.45;100.00;101883.38;6220987;23;20000;-83
2023/06/04 01:27:52;;;;;;;;;;;;;;;6.28;100.00;101878.53;6221249;23;20008;-83
2023/06/04 01:30:28;;;;;;;5.05;2.28;;;;;;;6.16;100.00;101875.00;6220555;23;19908;-82
2023/06/04 01:32:54;;;;;;;3.45;1.90;;;;;;;6.08;100.00;101864.91;6170778;23;20109;-83
2023/06/04 01:35:21;;;;;;;3.97;1.80;;;;;;;6.07;100.00;101870.38;6220553;23;20445;-82
2023/06/04 01:37:47;;;;;;;6.53;2.35;;;;;;;5.99;100.00;101870.13;6195749;23;20087;-83
2023/06/04 01:40:14;;;;;;;4.05;1.98;;;;;;;5.91;100.00;101868.88;6170632;23;20032;-83
2023/06/04 01:42:41;;;;;;;4.53;2.17;;;;;;;5.89;100.00;101868.13;6220768;23;20075;-83
2023/06/04 01:45:07;;;;;;;4.82;2.15;;;;;;;5.94;100.00;101868.66;6195603;23;20004;-83
2023/06/04 01:47:33;;;;;;;4.20;2.15;;;;;;;5.94;100.00;101862.47;6169465;23;20348;-83
2023/06/04 01:49:59;;;;;;;7.22;2.40;;;;;;;5.96;100.00;101868.56;6170544;23;20004;-83
2023/06/04 01:52:25;;;;;;;4.55;2.58;;;;;;;6.04;100.00;101875.97;6170414;23;20004;-83
2023/06/04 01:54:52;;;;;;;3.97;2.10;;;;;;;6.03;100.00;101875.09;6170470;23;20008;-83
2023/06/04 01:57:21;;;;;;;5.40;2.05;;;;;;;6.05;100.00;101875.84;6170830;23;20372;-83
2023/06/04 01:59:47;;;;;;;6.28;2.58;;;;;;;6.01;100.00;101870.88;6170686;23;20008;-82
2023/06/04 02:02:15;;;;;;;3.92;2.33;;;;;;;5.93;100.00;101880.31;6195272;23;20004;-83
2023/06/04 02:04:41;;;;;;;3.92;2.15;;;;;;;5.88;100.00;101881.59;6195185;23;20004;-83
2023/06/04 02:07:11;;;;;;;4.07;2.30;;;;;;;5.86;100.00;101880.88;6220495;23;20003;-84
2023/06/04 02:09:37;;;;;;;5.80;2.25;;;;;;;5.81;100.00;101885.69;6245032;23;19996;-83
2023/06/04 02:12:03;;;;;;;3.85;2.15;;;;;;;5.75;100.00;101875.50;6195108;23;20034;-84
2023/06/04 02:14:29;;;;;;;5.35;2.17;;;;;;;5.78;100.00;101878.78;6220431;23;20127;-83
2023/06/04 02:16:57;;;;;;;6.63;2.17;;;;;;;5.75;100.00;101880.84;6195231;23;20381;-84
2023/06/04 02:19:26;;;;;;;4.75;2.53;;;;;;;5.74;100.00;101874.63;6245239;23;20008;-84
2023/06/04 02:21:55;;;;;;;3.85;2.10;;;;;;;5.76;100.00;101862.03;6195172;23;20012;-84
2023/06/04 02:24:22;;;;;;;4.20;2.25;;;;;;;5.75;100.00;101865.69;6220011;23;20062;-84
2023/06/04 02:26:47;;;;;;;3.92;2.25;;;;;;;5.73;100.00;101873.78;6246853;22;20004;-84
2023/06/04 02:29:13;;;;;;;3.55;2.20;;;;;;;5.66;100.00;101861.03;6219790;23;20062;-83
2023/06/04 02:31:41;;;;;;;5.75;1.92;;;;;;;5.61;100.00;101871.19;6194906;23;20054;-83
2023/06/04 02:34:06;;;;;;;3.65;2.10;;;;;;;5.53;100.00;101861.13;6195318;23;20036;-83
2023/06/04 02:36:32;;;;;;;3.70;1.98;;;;;;;5.49;100.00;101872.97;6195075;23;20070;-84
2023/06/04 02:38:58;;;;;;;3.08;1.80;;;;;;;5.40;100.00;101869.19;6195042;23;20015;-82
2023/06/04 02:41:23;;;;;;;7.32;2.17;;;;;;;5.31;100.00;101867.22;6246866;22;20004;-84
2023/06/04 02:43:49;;;;;;;3.75;2.53;;;;;;;5.14;100.00;101851.63;6245342;23;20007;-85
2023/06/04 02:46:15;;;;;;;4.80;2.58;;;;;;;5.13;100.00;101865.91;6194801;23;20004;-84
2023/06/04 02:48:43;;;;;;;2.92;1.88;;;;;;;5.05;100.00;101866.47;6194947;23;20004;-84
2023/06/04 02:51:10;;;;;;;2.60;1.73;;;;;;;5.04;100.00;101872.78;6195177;23;20000;-84
2023/06/04 02:53:38;;;;;;;5.20;2.13;;;;;;;5.03;100.00;101871.09;6194983;23;20336;-84
2023/06/04 02:56:04;;;;;;;3.08;2.10;;;;;;;5.03;100.00;101865.75;6195080;23;20015;-83
2023/06/04 02:58:31;;;;;;;3.38;2.17;;;;;;;5.03;100.00;101863.94;6195096;23;20036;-84
2023/06/04 03:00:57;;;;;;;3.28;2.10;;;;;;;5.09;100.00;101865.28;6194740;23;20433;-83
2023/06/04 03:03:22;;;;;;;3.50;1.98;;;;;;;5.15;100.00;101854.16;6194821;23;20096;-84
2023/06/04 03:05:49;;;;;;;4.53;1.90;;;;;;;5.23;100.00;101859.78;6194758;23;20012;-84
2023/06/04 03:08:14;;;;;;;3.20;1.73;;;;;;;5.25;100.00;101860.53;6194937;23;20004;-84
2023/06/04 03:10:40;;;;;;;5.47;2.28;;;;;;;5.21;100.00;101859.06;6194695;23;20054;-85
2023/06/04 03:13:08;;;;;;;4.22;2.30;;;;;;;5.17;100.00;101862.91;6194705;23;20046;-84
2023/06/04 03:15:33;;;;;;;7.82;2.47;;;;;;;5.01;100.00;101860.53;6195050;23;20446;-84
2023/06/04 03:17:59;;;;;;;3.60;2.17;;;;;;;4.90;100.00;101867.63;6194618;23;20001;-84
2023/06/04 03:20:25;;;;;;;4.50;1.88;;;;;;;4.82;100.00;101862.84;6194780;23;20008;-84
2023/06/04 03:22:51;;;;;;;5.10;2.35;;;;;;;4.69;100.00;101854.03;6194716;23;20451;-84
2023/06/04 03:25:17;;;;;;;4.32;1.92;;;;;;;4.61;100.00;101862.56;6194696;23;20011;-83
2023/06/04 03:27:43;;;;;;;4.00;2.22;;;;;;;4.59;100.00;101859.16;6194925;23;20016;-84
2023/06/04 03:30:09;;;;;;;3.95;2.17;;;;;;;4.54;100.00;101855.97;6194565;23;20443;-83
2023/06/04 03:32:35;;;;;;;6.82;2.28;;;;;;;4.51;100.00;101846.38;6219803;23;20012;-83
2023/06/04 03:35:01;;;;;;;3.28;1.88;;;;;;;4.50;100.00;101854.47;6219393;23;20046;-83
2023/06/04 03:37:27;;;;;;;5.13;1.80;;;;;;;4.51;100.00;101857.03;6194582;23;20437;-84
2023/06/04 03:39:53;;;;;;;4.68;2.22;;;;;;;4.50;100.00;101857.13;6245009;23;20081;-83
2023/06/04 03:42:19;;;;;;;4.30;2.28;;;;;;;4.50;100.00;101851.81;6245073;23;20004;-84
2023/06/04 03:44:45;;;;;;;3.35;1.75;;;;;;;4.50;100.00;101865.13;6196591;23;20095;-83
2023/06/04 03:47:11;;;;;;;4.32;2.42;;;;;;;4.49;100.00;101864.28;6196961;23;20071;-83
2023/06/04 03:49:37;;;;;;;5.28;2.10;;;;;;;4.45;100.00;101856.63;6196436;23;20035;-83
2023/06/04 03:52:03;;;;;;;4.30;2.13;;;;;;;4.40;100.00;101865.78;6196519;23;20011;-84
2023/06/04 03:54:28;;;;;;;3.20;1.80;;;;;;;4.36;100.00;101853.63;6196437;23;20004;-84
2023/06/04 03:56:54;;;;;;;5.35;2.30;;;;;;;4.38;100.00;101857.06;6196630;23;20015;-82
2023/06/04 03:59:20;;;;;;;4.75;2.33;;;;;;;4.49;100.00;101860.78;6196432;23;20318;-84
2023/06/04 04:01:49;;;;;;;4.93;2.50;;;;;;;4.53;100.00;101864.94;6221708;23;20155;-84
2023/06/04 04:04:15;;;;;;;3.53;2.10;;;;;;;4.53;100.00;101859.59;6196874;23;20008;-84
2023/06/04 04:06:41;;;;;;;4.05;2.42;;;;;;;4.54;100.00;101859.47;6196358;23;20086;-83
2023/06/04 04:09:06;;;;;;;4.50;1.95;;;;;;;4.49;100.00;101848.31;6196429;23;20066;-84
2023/06/04 04:11:32;;;;;;;3.40;2.03;;;;;;;4.49;100.00;101858.09;6196169;23;20096;-83
2023/06/04 04:13:58;;;;;;;3.70;1.80;;;;;;;4.43;100.00;101855.88;6196155;23;20012;-83
2023/06/04 04:16:24;;;;;;;5.45;2.50;;;;;;;4.38;100.00;101851.72;6196494;23;20039;-83
2023/06/04 04:18:50;;;;;;;4.78;2.40;;;;;;;4.37;100.00;101857.19;6246321;23;20023;-84
2023/06/04 04:21:16;;;;;;;5.30;1.92;;;;;;;4.38;100.00;101846.41;6196225;23;20012;-83
2023/06/04 04:23:44;;;;;;;3.03;2.28;;;;;;;4.43;100.00;101854.06;6221110;23;20117;-83
2023/06/04 04:26:10;;;;;;;4.60;2.25;;;;;;;4.43;100.00;101845.25;6196308;23;20449;-83
2023/06/04 04:28:36;;;;;;;5.97;2.30;;;;;;;4.56;100.00;101849.56;6196211;23;20035;-84
2023/06/04 04:31:04;;;;;;;5.60;2.00;;;;;;;4.61;100.00;101850.09;6220983;23;20007;-84
2023/06/04 04:33:36;;;;;;;3.17;2.10;;;;;;;4.66;100.00;101849.78;6221861;23;20486;-84
2023/06/04 04:36:12;;;;;;;4.20;2.45;;;;;;;4.74;100.00;101855.41;6246757;23;20425;-83
2023/06/04 04:38:38;;;;;;;6.20;2.38;;;;;;;4.85;100.00;101854.63;6222066;23;20020;-83
2023/06/04 04:41:04;;;;;;;6.78;2.92;;;;;;;4.95;100.00;101866.31;6196211;23;20004;-83
2023/06/04 04:43:36;;;;;;;3.50;2.15;;;;;;;5.07;100.00;101860.06;6196078;23;20441;-84
2023/06/04 04:46:01;;;;;;;5.53;2.35;;;;;;;5.13;100.00;101861.41;6221013;23;20510;-82
2023/06/04 04:48:27;;;;;;;3.70;2.33;;;;;;;5.23;100.00;101865.09;6195985;23;20004;-83
2023/06/04 04:50:53;;;;;;;3.72;1.92;;;;;;;5.31;100.00;101861.03;6195857;23;20097;-84
2023/06/04 04:53:19;;;;;;;5.40;2.20;;;;;;;5.25;100.00;101855.19;6195827;23;20083;-82
2023/06/04 04:55:47;;;;;;;3.47;1.98;;;;;;;5.41;100.00;101862.03;6195491;23;20455;-85
2023/06/04 04:58:13;;;;;;;5.10;2.42;;;;;;;5.44;100.00;101865.31;6220997;23;20008;-82
2023/06/04 05:00:39;;;;;;;4.00;2.30;;;;;;;5.46;100.00;101866.06;6220660;23;20035;-84
2023/06/04 05:03:05;;;;;;;3.58;2.28;;;;;;;5.64;100.00;101869.16;6195746;23;20028;-81
2023/06/04 05:05:32;;;;;;;3.40;2.13;;;;;;;6.10;100.00;101871.00;6220944;23;20004;-82
2023/06/04 05:07:57;;;;;;;6.18;2.33;;;;;;;6.90;100.00;101879.84;6195778;23;20332;-84
2023/06/04 05:10:23;;;;;;;2.92;1.80;;;;;;;7.91;100.00;101882.97;6195817;23;20004;-83
2023/06/04 05:12:57;;;;;;;3.03;1.98;;;;;;;8.90;100.00;101877.09;6195854;23;20395;-83
2023/06/04 05:15:24;;;;;;;4.18;1.75;;;;;;;9.71;100.00;101874.19;6246387;23;20070;-83
2023/06/04 05:17:52;;;;;;;3.20;2.22;;;;;;;10.46;97.08;101876.03;6195975;23;20012;-84
2023/06/04 05:20:18;;;;;;;5.32;2.05;;;;;;;11.08;91.99;101875.41;6221234;23;20087;-83
2023/06/04 05:22:45;;;;;;;4.45;2.00;;;;;;;11.40;87.33;101867.66;6246065;23;20372;-83
2023/06/04 05:25:11;;;;;;;4.47;2.17;;;;;;;12.03;83.58;101877.47;6246158;23;20023;-83
2023/06/04 05:27:38;;;;;;;2.60;1.85;;;;;;;12.57;79.08;101874.59;6170963;23;20012;-83
2023/06/04 05:30:04;;;;;;;5.75;2.47;;;;;;;12.96;76.28;101879.44;6245959;23;20101;-84
2023/06/04 05:32:32;;;;;;;3.00;1.80;;;;;;;13.26;72.91;101877.13;6220980;23;20432;-83
2023/06/04 05:34:58;;;;;;;4.57;1.83;;;;;;;13.04;73.29;101875.91;6220891;23;20012;-83
2023/06/04 05:37:26;;;;;;;5.00;3.10;;;;;;;12.98;73.27;101874.72;6220649;23;20008;-81
2023/06/04 05:39:53;;;;;;;5.50;2.60;;;;;;;12.87;74.94;101880.44;6220975;23;20325;-85
2023/06/04 05:42:22;;;;;;;3.22;2.13;;;;;;;12.90;75.09;101880.94;6246099;23;20084;-84
2023/06/04 05:44:48;;;;;;;5.90;2.78;;;;;;;13.59;72.30;101887.00;6222049;23;20092;-84
2023/06/04 05:47:15;;;;;;;4.70;2.22;;;;;;;14.19;70.90;101882.25;6201860;23;20379;-82
2023/06/04 05:49:40;;;;;;;5.05;2.40;;;;;;;14.73;68.49;101879.75;6219538;23;20064;-83
2023/06/04 05:52:06;;;;;;;4.22;2.83;;;;;;;15.16;65.35;101882.91;6198162;23;20452;-85
2023/06/04 05:54:32;;;;;;;5.53;3.15;;;;;;;15.45;65.35;101881.34;6195655;23;20008;-84
2023/06/04 05:56:58;;;;;;;4.85;2.95;;;;;;;15.79;63.51;101884.50;6195763;23;20058;-84
2023/06/04 05:59:24;;;;;;;7.90;3.17;;;;;;;16.10;62.17;101883.53;6195265;23;20012;-85
2023/06/04 06:01:50;;;;;;;5.50;2.92;;;;;;;16.40;60.58;101895.25;6170493;23;20332;-84
2023/06/04 06:04:15;;;;;;;4.65;2.67;;;;;;;16.70;58.58;101887.97;6170406;23;20058;-84
2023/06/04 06:06:43;;;;;;;5.10;2.80;;;;;;;16.93;56.83;101887.00;6220251;23;20000;-84
2023/06/04 06:09:10;;;;;;;2.95;2.00;;;;;;;17.03;57.17;101879.41;6220632;23;20298;-83
2023/06/04 06:11:36;;;;;;;5.13;2.78;;;;;;;17.11;56.05;101881.16;6170307;23;20008;-84
2023/06/04 06:14:02;;;;;;;5.55;3.25;;;;;;;17.34;54.97;101883.72;6220302;23;20126;-82
2023/06/04 06:16:28;;;;;;;3.47;2.17;;;;;;;17.56;54.09;101877.25;6170217;23;20055;-83
2023/06/04 06:18:53;;;;;;;5.18;3.40;;;;;;;17.77;53.07;101886.44;6195124;23;20019;-82
2023/06/04 06:21:20;;;;;;;5.30;3.35;;;;;;;18.01;52.10;101879.75;6170259;23;20421;-86
2023/06/04 06:23:45;;;;;;;5.70;3.08;;;;;;;18.10;52.30;101888.59;6170110;23;20005;-85
2023/06/04 06:26:11;;;;;;;8.73;3.30;;;;;;;18.46;51.89;101886.53;6170232;23;20034;-85
2023/06/04 06:28:37;;;;;;;4.50;3.10;;;;;;;18.83;50.21;101880.91;6169934;23;20062;-86
2023/06/04 06:31:03;;;;;;;6.05;3.55;;;;;;;18.99;49.69;101885.97;6169959;23;20012;-84
2023/06/04 06:33:29;;;;;;;6.05;3.42;;;;;;;19.07;50.02;101882.25;6195011;23;20004;-84
2023/06/04 06:35:54;;;;;;;5.40;3.20;;;;;;;19.38;48.86;101870.78;6170198;23;20383;-84
2023/06/04 06:38:20;;;;;;;5.47;2.95;;;;;;;19.70;47.06;101891.00;6170151;23;20031;-85
2023/06/04 06:40:46;;;;;;;4.65;3.10;;;;;;;19.88;47.05;101890.38;6170201;23;20015;-84
2023/06/04 06:43:11;;;;;;;3.38;2.22;;;;;;;20.19;46.56;101887.00;6170074;23;20004;-85
2023/06/04 06:45:37;;;;;;;7.03;3.10;;;;;;;20.59;45.54;101892.41;6169610;23;20581;-84
2023/06/04 06:48:04;;;;;;;5.68;3.00;;;;;;;20.78;45.09;101878.91;6170160;23;20016;-82
2023/06/04 06:50:29;;;;;;;4.70;3.15;;;;;;;20.96;43.01;101879.03;6219641;23;19996;-85
2023/06/04 06:52:55;;;;;;;4.35;3.30;;;;;;;21.03;39.93;101885.28;6169917;23;20008;-84
2023/06/04 06:55:21;;;;;;;4.05;3.00;;;;;;;20.83;42.59;101879.91;6169955;23;20382;-84
2023/06/04 06:57:46;;;;;;;5.72;2.88;;;;;;;20.93;42.56;101884.06;6169994;23;20015;-85
2023/06/04 07:00:13;;;;;;;5.75;2.97;;;;;;;21.13;41.45;101864.84;6174837;23;20012;-84
2023/06/04 07:02:38;;;;;;;4.43;2.95;;;;;;;21.38;41.21;101886.81;6194849;23;20087;-84
2023/06/04 07:05:04;;;;;;;2.30;1.80;;;;;;;21.67;39.92;101883.47;6195113;23;20440;-84
2023/06/04 07:07:31;;;;;;;4.40;3.25;;;;;;;21.81;40.77;101878.72;6244897;23;20005;-83
2023/06/04 07:09:56;;;;;;;5.15;3.05;;;;;;;22.17;40.16;101888.91;6194082;23;20494;-83
2023/06/04 07:12:22;;;;;;;5.13;2.38;;;;;;;22.59;37.97;101882.81;6194732;23;20011;-83
2023/06/04 07:14:47;;;;;;;3.58;2.60;;;;;;;22.67;37.71;101885.22;6194664;23;20004;-83
2023/06/04 07:17:13;;;;;;;4.85;2.97;;;;;;;22.72;38.36;101885.38;6219159;23;20054;-84
2023/06/04 07:19:39;;;;;;;6.25;4.13;;;;;;;23.03;37.77;101883.56;6194641;23;20098;-84
2023/06/04 07:22:05;;;;;;;3.55;2.85;;;;;;;23.17;36.65;101882.28;6194568;23;20000;-84
2023/06/04 07:24:30;;;;;;;5.20;2.83;;;;;;;23.13;36.03;101886.59;6244869;23;20075;-87
2023/06/04 07:26:56;;;;;;;4.97;3.15;;;;;;;23.37;36.40;101884.75;6194525;23;20004;-86
2023/06/04 07:29:21;;;;;;;5.43;2.92;;;;;;;23.82;34.73;101888.97;6194637;23;20043;-86
2023/06/04 07:31:47;;;;;;;4.20;2.50;;;;;;;24.14;33.48;101884.78;6194045;23;20400;-86
2023/06/04 07:34:13;;;;;;;6.72;3.05;;;;;;;24.13;34.02;101885.00;6195315;23;20030;-85
2023/06/04 07:36:39;;;;;;;6.60;3.10;;;;;;;24.41;32.85;101884.28;6197008;23;20008;-83
2023/06/04 07:39:06;;;;;;;4.43;3.05;;;;;;;24.63;32.29;101884.50;6244400;23;20044;-84
2023/06/04 07:41:32;;;;;;;4.53;2.80;;;;;;;24.88;30.59;101878.72;6229858;23;20042;-84
2023/06/04 07:43:58;;;;;;;5.60;2.92;;;;;;;24.61;31.02;101891.34;6219521;23;20004;-85
2023/06/04 07:46:23;;;;;;;6.55;2.97;;;;;;;24.57;31.08;101874.50;6194607;23;20004;-85
2023/06/04 07:48:49;;;;;;;3.10;2.45;;;;;;;25.20;31.36;101894.78;6219267;23;20004;-85
2023/06/04 07:51:14;;;;;;;4.53;2.78;;;;;;;25.72;29.29;101879.97;6219375;23;20320;-85
2023/06/04 07:53:41;;;;;;;4.10;2.85;;;;;;;25.91;29.70;101886.97;6194513;23;20011;-84
2023/06/04 07:56:06;;;;;;;4.72;3.30;;;;;;;26.33;29.81;101897.53;6219390;23;20090;-83
2023/06/04 07:58:32;;;;;;;4.35;2.78;;;;;;;26.40;28.81;101894.56;6194412;23;20040;-82
2023/06/04 08:00:57;;;;;;;5.40;3.47;;;;;;;26.21;28.97;101889.34;6194234;23;20008;-82
2023/06/04 08:03:24;;;;;;;8.10;3.28;;;;;;;26.31;27.66;101892.25;6194410;23;20008;-82
2023/06/04 08:05:50;;;;;;;7.05;3.13;;;;;;;26.06;29.17;101891.84;6219649;23;20004;-83
2023/06/04 08:08:15;;;;;;;3.90;2.80;;;;;;;26.49;28.65;101893.06;6194395;23;20024;-82
2023/06/04 08:10:41;;;;;;;5.32;2.75;;;;;;;26.91;28.15;101884.22;6194473;23;20004;-85
2023/06/04 08:13:07;;;;;;;4.10;2.63;;;;;;;27.68;27.60;101891.38;6194453;23;20008;-83
2023/06/04 08:15:32;;;;;;;5.05;3.25;;;;;;;27.97;25.16;101877.25;6194432;23;20444;-83
2023/06/04 08:18:18;;;;;;;3.72;2.80;;;;;;;27.59;26.17;101874.44;6203111;23;20005;-83
2023/06/04 08:21:03;;;;;;;4.53;2.75;;;;;;;27.90;26.54;101890.47;6223986;23;20012;-83
2023/06/04 08:23:41;;;;;;;4.60;2.88;;;;;;;28.40;24.41;101891.91;6221497;23;20079;-82
2023/06/04 08:26:27;;;;;;;5.25;3.47;;;;;;;28.62;25.50;101891.78;6223740;23;20087;-84
2023/06/04 08:29:04;;;;;;;5.03;3.10;;;;;;;28.89;25.48;101895.19;6222527;23;20041;-83
2023/06/04 08:31:34;;;;;;;4.13;2.90;;;;;;;29.21;24.58;101880.34;6245984;23;20318;-82
2023/06/04 08:34:19;;;;;;;4.60;3.17;;;;;;;29.68;24.96;101890.41;6204623;23;20462;-82
2023/06/04 08:36:46;;;;;;;6.00;3.38;;;;;;;29.88;24.04;101885.97;6196292;23;20313;-84
2023/06/04 08:39:12;;;;;;;4.38;3.00;;;;;;;29.97;23.96;101881.50;6196085;23;20004;-84
2023/06/04 08:41:43;;;;;;;4.43;2.83;;;;;;;30.13;23.66;101883.16;6246392;23;20015;-84
2023/06/04 08:44:09;;;;;;;4.50;2.60;;;;;;;30.10;23.93;101882.88;6195953;23;20039;-83
2023/06/04 08:46:39;;;;;;;4.90;2.50;;;;;;;30.27;22.87;101874.28;6220893;23;20111;-83
2023/06/04 08:49:06;;;;;;;4.72;2.95;;;;;;;30.49;23.94;101885.88;6221101;23;20011;-82
2023/06/04 08:51:35;;;;;;;4.57;2.92;;;;;;;30.87;23.41;101869.63;6221279;23;20004;-88
2023/06/04 08:54:01;;;;;;;5.03;2.90;;;;;;;31.23;23.04;101881.34;6195328;23;20011;-89
2023/06/04 08:56:28;;;;;;;5.40;2.78;;;;;;;31.54;23.50;101883.91;6247268;23;19996;-79
2023/06/04 08:59:01;;;;;;;3.75;2.60;;;;;;;31.76;22.27;101889.84;6247734;22;20008;-80
2023/06/04 09:01:27;;;;;;;4.75;2.78;;;;;;;31.81;21.79;101888.97;6220974;23;20043;-81
2023/06/04 09:03:52;;;;;;;4.75;3.15;;;;;;;31.90;21.70;101889.19;6220733;23;20000;-81
2023/06/04 09:06:18;;;;;;;4.43;3.10;;;;;;;31.53;20.61;101880.31;6246293;23;20081;-80
2023/06/04 09:08:45;;;;;;;4.68;2.85;;;;;;;31.25;21.41;101886.59;6220916;23;19996;-80
2023/06/04 09:11:14;;;;;;;3.25;2.75;;;;;;;31.21;21.40;101883.56;6220783;23;20004;-80
2023/06/04 09:13:40;;;;;;;4.05;2.80;;;;;;;31.42;21.18;101877.91;6195780;23;20007;-81
2023/06/04 09:16:06;;;;;;;5.70;3.20;;;;;;;31.63;21.40;101884.97;6195683;23;20023;-81
2023/06/04 09:18:32;;;;;;;4.18;2.78;;;;;;;31.84;20.60;101884.78;6247270;22;20004;-82
2023/06/04 09:21:08;;;;;;;4.88;3.13;;;;;;;32.09;20.58;101873.41;6245998;23;20515;-81
2023/06/04 09:23:47;;;;;;;3.78;2.90;;;;;;;32.32;21.27;101857.03;6221561;23;20471;-81
2023/06/04 09:26:13;;;;;;;5.03;3.03;;;;;;;32.44;19.27;101876.09;6220432;23;20053;-80
2023/06/04 09:28:42;;;;;;;3.83;2.63;;;;;;;31.67;19.18;101874.09;6245737;23;20024;-79
2023/06/04 09:31:09;;;;;;;5.90;3.10;;;;;;;31.20;20.67;101876.38;6195833;23;20101;-80
2023/06/04 09:33:50;;;;;;;4.68;3.05;;;;;;;30.76;22.17;101874.38;6220516;23;20011;-79
2023/06/04 09:36:17;;;;;;;4.13;3.03;;;;;;;31.41;22.71;101885.44;6220794;23;20004;-81
2023/06/04 09:38:42;;;;;;;5.75;3.45;;;;;;;31.59;21.57;101886.66;6245992;23;20233;-81
2023/06/04 09:41:12;;;;;;;4.82;2.60;;;;;;;31.52;21.16;101878.66;6249137;23;20320;-80
2023/06/04 09:43:38;;;;;;;4.20;2.78;;;;;;;31.52;20.38;101877.84;6200616;23;20019;-80
2023/06/04 09:46:12;;;;;;;5.13;3.65;;;;;;;31.01;20.84;101880.91;6196026;23;20328;-80
2023/06/04 09:48:38;;;;;;;5.35;3.33;;;;;;;31.09;21.79;101878.38;6195686;23;20004;-82
2023/06/04 09:51:08;;;;;;;5.38;3.10;;;;;;;31.40;22.72;101883.75;6245567;23;20429;-81
2023/06/04 09:53:34;;;;;;;4.85;3.13;;;;;;;31.65;20.92;101882.72;6245469;23;20087;-82
2023/06/04 09:56:04;;;;;;;4.40;2.85;;;;;;;31.98;21.25;101886.59;6245755;23;20047;-80
2023/06/04 09:58:31;;;;;;;4.57;3.08;;;;;;;31.79;20.06;101882.88;6220393;23;20012;-81
2023/06/04 10:01:01;;;;;;;2.97;2.63;;;;;;;31.54;22.14;101876.44;6220146;23;20120;-81
2023/06/04 10:03:34;;;;;;;4.97;3.28;;;;;;;31.62;21.55;101861.03;6195194;23;20008;-82
2023/06/04 10:06:02;;;;;;;3.92;3.00;;;;;;;32.73;20.84;101888.00;6195206;23;20011;-80
2023/06/04 10:08:29;;;;;;;4.28;2.97;;;;;;;33.24;19.93;101890.13;6220012;23;20004;-80
2023/06/04 10:10:57;;;;;;;5.38;2.92;;;;;;;33.86;20.03;101889.13;6220107;23;20004;-81
2023/06/04 10:13:24;;;;;;;6.05;2.90;;;;;;;34.13;19.70;101891.16;6195157;23;20340;-81
2023/06/04 10:15:51;;;;;;;4.53;2.78;;;;;;;33.70;19.76;101891.34;6194899;23;20513;-81
2023/06/04 10:18:18;;;;;;;4.03;3.00;;;;;;;33.34;20.14;101885.50;6169113;23;20063;-92
2023/06/04 10:20:47;;;;;;;4.82;3.28;;;;;;;33.17;20.77;101894.41;6244896;23;20076;-88
2023/06/04 10:23:13;;;;;;;5.80;3.60;;;;;;;33.21;21.22;101887.94;6245505;23;20000;-89
2023/06/04 10:25:38;;;;;;;3.75;2.72;;;;;;;33.43;20.43;101898.47;6245417;23;20341;-86
2023/06/04 10:28:04;;;;;;;6.75;3.40;;;;;;;33.04;21.63;101890.41;6247176;22;20057;-89
2023/06/04 10:30:30;;;;;;;4.22;2.60;;;;;;;32.76;21.20;101889.34;6246494;22;20007;-87
2023/06/04 10:32:57;;;;;;;4.20;2.70;;;;;;;32.38;21.88;101867.81;6246903;22;20000;-88
2023/06/04 10:35:49;;;;;;;6.00;3.10;;;;;;;32.56;23.10;101891.28;6245575;23;20027;-89
2023/06/04 10:38:16;;;;;;;5.35;3.08;;;;;;;33.02;22.71;101892.66;6238813;23;20004;-88
2023/06/04 10:40:42;;;;;;;5.70;3.20;;;;;;;33.04;23.31;101890.41;6246534;22;20016;-90
2023/06/04 10:43:09;;;;;;;4.35;3.20;;;;;;;33.46;22.29;101895.06;6245406;23;20026;-92
2023/06/04 10:45:36;;;;;;;8.30;3.60;;;;;;;33.64;22.17;101898.16;6245451;23;20039;-86
2023/06/04 10:48:06;;;;;;;5.15;3.92;;;;;;;33.57;21.47;101906.91;6219263;23;20028;-87
2023/06/04 10:50:33;;;;;;;11.55;3.85;;;;;;;33.45;22.66;101904.56;6194794;23;20035;-90
2023/06/04 10:53:02;;;;;;;3.83;3.08;;;;;;;33.51;21.87;101894.16;6218762;23;20032;-88
2023/06/04 10:55:30;;;;;;;4.20;3.10;;;;;;;33.10;22.54;101891.16;6245068;23;20008;-87
2023/06/04 10:57:57;;;;;;;6.43;3.65;;;;;;;33.20;23.19;101891.84;6194968;23;20006;-87
2023/06/04 11:00:34;;;;;;;3.95;3.20;;;;;;;33.70;21.51;101897.75;6195886;23;20008;-88
2023/06/04 11:03:01;;;;;;;4.75;2.90;;;;;;;33.52;22.33;101901.38;6247324;23;20062;-84
2023/06/04 11:05:36;;;;;;;4.90;3.30;;;;;;;33.54;22.36;101878.81;6195748;23;20079;-85
2023/06/04 11:08:05;;;;;;;5.68;3.20;;;;;;;33.88;23.05;101872.91;6244622;23;20687;-86
2023/06/04 11:10:36;;;;;;;5.15;3.13;;;;;;;33.91;22.62;101889.84;6194636;23;20091;-85
2023/06/04 11:13:06;;;;;;;3.90;3.50;;;;;;;33.96;23.20;101891.72;6244577;23;20027;-85
2023/06/04 11:15:48;;;;;;;7.88;3.55;;;;;;;34.22;21.62;101899.63;6244679;23;20090;-85
2023/06/04 11:18:18;;;;;;;7.72;3.47;;;;;;;33.99;21.61;101898.66;6170237;23;20016;-86
2023/06/04 11:20:47;;;;;;;5.22;3.53;;;;;;;33.81;22.65;101886.41;6194515;23;20019;-84
2023/06/04 11:23:13;;;;;;;7.68;3.95;;;;;;;34.48;22.52;101880.41;6243769;23;20008;-89
2023/06/04 11:25:39;;;;;;;8.32;4.47;;;;;;;35.16;21.68;101878.69;6245292;23;20004;-88
2023/06/04 11:28:04;;;;;;;7.35;3.42;;;;;;;35.29;22.28;101880.59;6244884;23;20310;-87